Time;durP1;ratioP1;P1;durP2;ratioP2;P2;SDS_P1;SDS_P2;PMS_P1;PMS_P2;Temp;Humidity;BMP_temperature;BMP_pressure;BME280_temperature;BME280_humidity;BME280_pressure;Samples;Min_cycle;Max_cycle;Signal;HPM_P1;HPM_P2
2023/09/13 00:01:07;;;;;;;0.70;0.70;;;;;;;15.99;85.99;97274.44;5063824;28;20149;-67
2023/09/13 00:03:35;;;;;;;0.68;0.68;;;;;;;15.70;86.19;97233.72;5063641;28;20071;-67
2023/09/13 00:06:02;;;;;;;0.70;0.70;;;;;;;15.97;86.28;97288.00;5062041;28;20053;-68
2023/09/13 00:08:28;;;;;;;0.68;0.68;;;;;;;15.53;87.41;97254.06;5063965;28;20059;-68
2023/09/13 00:11:04;;;;;;;0.70;0.70;;;;;;;15.69;88.52;97276.03;5064311;28;20074;-67
2023/09/13 00:13:33;;;;;;;0.60;0.60;;;;;;;15.61;88.71;97268.84;5063362;28;20135;-67
2023/09/13 00:16:00;;;;;;;0.60;0.60;;;;;;;15.58;89.12;97267.66;5063570;28;20723;-68
2023/09/13 00:18:26;;;;;;;0.60;0.60;;;;;;;15.71;88.06;97274.41;5064183;28;20498;-68
2023/09/13 00:20:53;;;;;;;0.70;0.70;;;;;;;15.71;87.90;97274.41;5063265;28;20298;-67
2023/09/13 00:23:20;;;;;;;0.60;0.60;;;;;;;15.70;87.73;97272.84;5061460;28;20057;-67
2023/09/13 00:25:47;;;;;;;0.65;0.65;;;;;;;15.71;86.97;97268.84;5062185;28;20060;-68
2023/09/13 00:28:14;;;;;;;0.63;0.63;;;;;;;15.56;87.63;97272.00;5062213;28;20052;-67
2023/09/13 00:30:41;;;;;;;0.60;0.60;;;;;;;15.56;87.96;97275.63;5076381;28;20056;-68
2023/09/13 00:33:07;;;;;;;0.70;0.70;;;;;;;15.63;88.10;97278.44;5083389;28;20048;-67
2023/09/13 00:35:35;;;;;;;0.60;0.60;;;;;;;15.12;88.65;97216.50;5083201;28;20044;-67
2023/09/13 00:38:02;;;;;;;0.60;0.60;;;;;;;15.02;88.85;97220.06;5083539;28;20520;-67
2023/09/13 00:40:28;;;;;;;0.60;0.60;;;;;;;15.60;89.09;97284.78;5083486;28;20048;-68
2023/09/13 00:42:55;;;;;;;0.63;0.63;;;;;;;15.66;88.47;97279.63;5081779;28;20055;-69
2023/09/13 00:45:22;;;;;;;0.60;0.60;;;;;;;15.60;88.74;97284.78;5084522;28;20056;-68
2023/09/13 00:47:49;;;;;;;0.70;0.70;;;;;;;15.66;88.27;97277.63;5085918;28;20655;-68
2023/09/13 00:50:16;;;;;;;0.70;0.70;;;;;;;15.30;88.43;97248.00;5087307;28;20461;-68
2023/09/13 00:52:45;;;;;;;0.70;0.70;;;;;;;15.60;88.41;97279.19;5087429;28;20044;-68
2023/09/13 00:55:16;;;;;;;0.70;0.70;;;;;;;15.65;88.56;97264.84;5087309;28;20048;-68
2023/09/13 00:57:44;;;;;;;0.60;0.60;;;;;;;15.02;88.88;97183.78;5087528;28;20048;-68
2023/09/13 01:00:12;;;;;;;0.65;0.65;;;;;;;15.63;89.31;97288.78;5087089;28;20555;-68
2023/09/13 01:02:40;;;;;;;0.80;0.80;;;;;;;15.68;89.48;97280.03;5085736;28;20052;-68
2023/09/13 01:05:13;;;;;;;0.70;0.70;;;;;;;15.75;87.88;97269.66;5087025;28;20044;-69
2023/09/13 01:07:41;;;;;;;0.60;0.60;;;;;;;15.64;88.10;97274.44;5087375;28;20558;-68
2023/09/13 01:10:09;;;;;;;0.60;0.60;;;;;;;15.60;88.73;97268.03;5086675;28;20468;-68
2023/09/13 01:12:37;;;;;;;0.70;0.70;;;;;;;15.61;88.59;97275.22;5085646;28;20435;-68
2023/09/13 01:15:08;;;;;;;0.70;0.70;;;;;;;15.41;89.62;97282.38;5086450;28;20267;-68
2023/09/13 01:17:39;;;;;;;0.70;0.70;;;;;;;15.39;89.64;97268.00;5087009;28;20138;-69
2023/09/13 01:20:16;;;;;;;0.70;0.70;;;;;;;15.32;90.56;97273.53;5086685;28;20423;-69
2023/09/13 01:23:04;;;;;;;0.60;0.60;;;;;;;15.36;90.43;97274.38;5086243;28;20064;-68
2023/09/13 01:26:00;;;;;;;0.60;0.60;;;;;;;13.84;90.47;97048.41;5086883;28;20059;-67
2023/09/13 01:28:40;;;;;;;0.60;0.60;;;;;;;15.17;91.80;97271.94;5085596;28;20064;-66
2023/09/13 01:31:10;;;;;;;0.60;0.60;;;;;;;15.26;91.84;97277.91;5085300;28;20074;-68
2023/09/13 01:33:37;;;;;;;0.63;0.63;;;;;;;15.36;91.37;97274.38;5086213;28;20880;-67
2023/09/13 01:36:04;;;;;;;0.60;0.60;;;;;;;15.29;90.93;97268.75;5084669;28;20051;-68
2023/09/13 01:38:31;;;;;;;0.60;0.60;;;;;;;14.74;91.53;97197.66;5086210;28;20059;-67
2023/09/13 01:41:18;;;;;;;0.60;0.60;;;;;;;14.90;91.14;97234.38;5086090;28;20138;-68
2023/09/13 01:43:46;;;;;;;0.60;0.60;;;;;;;15.12;91.62;97277.88;5086619;28;20056;-68
2023/09/13 01:46:13;;;;;;;0.70;0.70;;;;;;;15.02;92.45;97275.84;5086234;28;20048;-68
2023/09/13 01:48:40;;;;;;;0.70;0.70;;;;;;;14.99;92.48;97274.66;5086778;28;20052;-68
2023/09/13 01:51:08;;;;;;;0.60;0.60;;;;;;;15.08;91.42;97269.50;5086312;28;20048;-68
2023/09/13 01:53:44;;;;;;;0.68;0.68;;;;;;;14.77;91.10;97247.06;5086208;28;20056;-68
2023/09/13 01:56:12;;;;;;;0.63;0.63;;;;;;;14.81;91.99;97264.63;5085662;28;20506;-67
2023/09/13 01:58:38;;;;;;;0.60;0.60;;;;;;;14.93;91.96;97273.44;5086123;28;20129;-68
2023/09/13 02:01:05;;;;;;;0.60;0.60;;;;;;;14.99;91.26;97282.22;5085966;28;20091;-69
2023/09/13 02:03:32;;;;;;;0.60;0.60;;;;;;;14.93;90.99;97278.22;5085891;28;20134;-68
2023/09/13 02:05:58;;;;;;;0.63;0.63;;;;;;;14.77;92.38;97263.81;5085720;28;20048;-68
2023/09/13 02:08:25;;;;;;;0.60;0.60;;;;;;;14.34;92.55;97206.25;5085545;28;20051;-69
2023/09/13 02:10:52;;;;;;;0.60;0.60;;;;;;;14.91;92.28;97275.00;5085640;28;20051;-69
2023/09/13 02:13:18;;;;;;;0.60;0.60;;;;;;;14.68;91.90;97232.69;5085927;28;20048;-68
2023/09/13 02:15:45;;;;;;;0.60;0.60;;;;;;;14.90;92.55;97276.22;5085695;28;20047;-68
2023/09/13 02:18:12;;;;;;;0.60;0.60;;;;;;;14.88;93.73;97275.78;5071002;28;20056;-69
2023/09/13 02:20:38;;;;;;;0.60;0.60;;;;;;;13.64;92.65;97075.78;5080554;28;20060;-68
2023/09/13 02:23:05;;;;;;;0.60;0.60;;;;;;;14.37;92.62;97219.44;5064672;28;20138;-68
2023/09/13 02:25:36;;;;;;;0.60;0.60;;;;;;;14.82;93.12;97277.38;5064943;28;20048;-68
2023/09/13 02:28:03;;;;;;;0.60;0.60;;;;;;;14.82;92.53;97271.78;5065040;28;20053;-68
2023/09/13 02:30:33;;;;;;;0.60;0.60;;;;;;;14.77;91.07;97270.19;5072566;28;20529;-68
2023/09/13 02:33:00;;;;;;;0.60;0.60;;;;;;;14.63;91.63;97280.47;5085583;28;20554;-68
2023/09/13 02:35:26;;;;;;;0.60;0.60;;;;;;;14.60;91.74;97276.50;5101220;28;20426;-69
2023/09/13 02:37:53;;;;;;;0.60;0.60;;;;;;;14.49;91.29;97269.25;5083768;28;20078;-68
2023/09/13 02:40:20;;;;;;;0.70;0.70;;;;;;;14.35;92.84;97260.81;5083172;28;20511;-68
2023/09/13 02:42:47;;;;;;;0.60;0.60;;;;;;;14.51;92.10;97272.47;5083107;28;20056;-68
2023/09/13 02:45:14;;;;;;;0.57;0.57;;;;;;;14.40;92.60;97261.22;5085366;28;20103;-68
2023/09/13 02:47:42;;;;;;;0.60;0.60;;;;;;;13.96;91.89;97206.81;5083593;28;20044;-69
2023/09/13 02:50:09;;;;;;;0.60;0.60;;;;;;;14.43;91.16;97285.53;5084902;28;20044;-68
2023/09/13 02:52:36;;;;;;;0.60;0.60;;;;;;;14.44;91.17;97277.97;5083090;28;20644;-68
2023/09/13 02:55:07;;;;;;;0.50;0.50;;;;;;;14.41;91.85;97284.34;5084726;28;20090;-68
2023/09/13 02:57:33;;;;;;;0.60;0.60;;;;;;;14.39;92.74;97287.50;5085096;28;20521;-67
2023/09/13 03:00:00;;;;;;;0.60;0.60;;;;;;;14.40;92.29;97288.31;5083259;28;20052;-67
2023/09/13 03:02:27;;;;;;;0.60;0.60;;;;;;;14.46;92.33;97289.53;5085104;28;20527;-68
2023/09/13 03:04:54;;;;;;;0.60;0.60;;;;;;;14.10;92.80;97218.81;5084994;28;20063;-68
2023/09/13 03:07:20;;;;;;;0.60;0.60;;;;;;;14.58;93.16;97289.19;5082793;28;20047;-69
2023/09/13 03:09:53;;;;;;;0.60;0.60;;;;;;;14.59;92.09;97288.03;5084611;28;20040;-68
2023/09/13 03:12:20;;;;;;;0.60;0.60;;;;;;;14.57;92.63;97287.63;5083408;28;20048;-66
2023/09/13 03:14:46;;;;;;;0.60;0.60;;;;;;;14.54;92.94;97288.41;5085240;28;20058;-67
2023/09/13 03:17:13;;;;;;;0.60;0.60;;;;;;;13.21;91.88;97110.06;5084746;28;20054;-68
2023/09/13 03:19:40;;;;;;;0.70;0.70;;;;;;;14.58;91.68;97283.63;5084116;28;20050;-68
2023/09/13 03:22:07;;;;;;;0.60;0.60;;;;;;;14.14;91.72;97224.44;5084305;28;20048;-68
2023/09/13 03:24:33;;;;;;;0.60;0.60;;;;;;;14.01;92.49;97232.31;5084293;28;20087;-67
2023/09/13 03:27:00;;;;;;;0.60;0.60;;;;;;;14.39;93.40;97293.09;5083777;28;20461;-67
2023/09/13 03:29:27;;;;;;;0.60;0.60;;;;;;;14.50;93.34;97285.59;5083054;28;20056;-67
2023/09/13 03:31:54;;;;;;;0.70;0.70;;;;;;;14.48;93.89;97284.38;5064159;28;20370;-68
2023/09/13 03:34:20;;;;;;;0.60;0.60;;;;;;;14.43;94.72;97287.53;5063819;28;20110;-67
2023/09/13 03:36:47;;;;;;;0.60;0.60;;;;;;;14.27;95.63;97261.97;5064029;28;20049;-67
2023/09/13 03:39:14;;;;;;;0.60;0.60;;;;;;;14.42;95.92;97288.72;5062785;28;20503;-67
2023/09/13 03:41:40;;;;;;;0.60;0.60;;;;;;;14.43;95.87;97282.75;5064004;28;20075;-67
2023/09/13 03:44:07;;;;;;;0.60;0.60;;;;;;;14.46;94.83;97283.97;5063769;28;20602;-68
2023/09/13 03:46:34;;;;;;;0.60;0.60;;;;;;;14.55;93.76;97285.22;5063722;28;20451;-68
2023/09/13 03:49:01;;;;;;;0.60;0.60;;;;;;;14.48;93.97;97285.16;5063533;28;20106;-67
2023/09/13 03:51:27;;;;;;;0.60;0.60;;;;;;;14.20;94.10;97267.44;5063646;28;20499;-66
2023/09/13 03:53:54;;;;;;;0.65;0.65;;;;;;;14.31;94.10;97297.00;5063534;28;20113;-67
2023/09/13 03:56:21;;;;;;;0.60;0.60;;;;;;;14.25;94.47;97292.19;5063516;28;20056;-66
2023/09/13 03:58:48;;;;;;;0.60;0.60;;;;;;;14.29;94.60;97295.81;5063587;28;20055;-67
2023/09/13 04:01:15;;;;;;;0.70;0.70;;;;;;;14.33;94.18;97291.06;5063490;28;20063;-68
2023/09/13 04:03:42;;;;;;;0.60;0.60;;;;;;;14.28;94.25;97292.22;5062017;28;20517;-68
2023/09/13 04:06:09;;;;;;;0.60;0.60;;;;;;;14.22;94.13;97293.75;5063640;28;20052;-68
2023/09/13 04:08:36;;;;;;;0.60;0.60;;;;;;;14.23;92.84;97291.75;5063665;28;20075;-67
2023/09/13 04:11:04;;;;;;;0.60;0.60;;;;;;;14.29;92.60;97298.59;5063564;28;20056;-66
2023/09/13 04:13:30;;;;;;;0.60;0.60;;;;;;;14.23;92.89;97302.88;5063121;28;20527;-67
2023/09/13 04:16:06;;;;;;;0.50;0.50;;;;;;;14.29;92.84;97301.38;5061809;28;20048;-68
2023/09/13 04:18:33;;;;;;;0.60;0.60;;;;;;;14.25;92.61;97306.13;5063581;28;20048;-68
2023/09/13 04:20:59;;;;;;;0.60;0.60;;;;;;;14.32;93.02;97308.97;5066443;28;20363;-67
2023/09/13 04:23:26;;;;;;;0.60;0.60;;;;;;;12.08;92.87;96952.59;5067089;28;20087;-67
2023/09/13 04:25:53;;;;;;;0.60;0.60;;;;;;;14.44;93.66;97317.00;5066123;28;20044;-67
2023/09/13 04:28:20;;;;;;;0.60;0.60;;;;;;;14.26;92.84;97257.56;5066012;28;20052;-67
2023/09/13 04:30:46;;;;;;;0.63;0.63;;;;;;;12.35;92.24;96936.56;5077699;28;20059;-68
2023/09/13 04:33:13;;;;;;;0.60;0.60;;;;;;;14.75;92.49;97306.03;5087346;28;20060;-67
2023/09/13 04:35:40;;;;;;;0.63;0.63;;;;;;;14.88;91.94;97304.50;5087291;28;20059;-69
2023/09/13 04:38:07;;;;;;;0.60;0.60;;;;;;;14.98;91.76;97302.94;5087237;28;20531;-69
2023/09/13 04:40:34;;;;;;;0.60;0.60;;;;;;;15.12;91.43;97301.00;5085796;28;20044;-67
2023/09/13 04:43:04;;;;;;;0.60;0.60;;;;;;;15.40;89.24;97300.31;5087393;28;20464;-67
2023/09/13 04:45:31;;;;;;;0.68;0.68;;;;;;;15.39;89.02;97295.13;5086714;28;20048;-67
2023/09/13 04:47:57;;;;;;;0.70;0.70;;;;;;;15.47;89.00;97303.13;5085421;28;20054;-68
2023/09/13 04:50:24;;;;;;;0.70;0.70;;;;;;;14.95;88.67;97208.88;5087052;28;20707;-67
2023/09/13 04:52:51;;;;;;;0.60;0.60;;;;;;;15.58;89.54;97303.13;5087596;28;20056;-68
2023/09/13 04:55:19;;;;;;;0.65;0.65;;;;;;;15.55;89.99;97299.16;5087453;28;20101;-67
2023/09/13 04:57:46;;;;;;;0.70;0.70;;;;;;;15.24;88.91;97227.28;5087465;28;20665;-68
2023/09/13 05:00:14;;;;;;;0.70;0.70;;;;;;;15.80;88.73;97286.00;5085550;28;20044;-69
2023/09/13 05:02:41;;;;;;;0.70;0.70;;;;;;;15.79;88.48;97314.34;5085167;28;20058;-68
2023/09/13 05:05:08;;;;;;;0.63;0.63;;;;;;;15.66;87.55;97255.28;5086611;28;20147;-69
2023/09/13 05:07:35;;;;;;;0.60;0.60;;;;;;;15.78;87.30;97260.47;5087066;28;20684;-67
2023/09/13 05:10:01;;;;;;;0.80;0.80;;;;;;;15.55;86.75;97214.59;5084447;28;20050;-67
2023/09/13 05:12:30;;;;;;;0.70;0.70;;;;;;;16.06;86.93;97293.97;5084014;28;20502;-68
2023/09/13 05:14:57;;;;;;;0.70;0.70;;;;;;;16.19;86.58;97289.59;5084095;28;20083;-68
2023/09/13 05:17:24;;;;;;;0.70;0.70;;;;;;;16.21;86.93;97283.59;5085642;28;20051;-68
2023/09/13 05:19:50;;;;;;;0.70;0.70;;;;;;;16.39;86.72;97289.97;5085626;28;20055;-68
2023/09/13 05:22:17;;;;;;;0.70;0.70;;;;;;;16.50;86.60;97288.75;5083645;28;20051;-68
2023/09/13 05:24:44;;;;;;;0.60;0.60;;;;;;;16.57;86.71;97288.75;5085950;28;20052;-68
2023/09/13 05:27:11;;;;;;;0.70;0.70;;;;;;;16.63;86.23;97259.16;5086620;28;20040;-68
2023/09/13 05:29:37;;;;;;;0.70;0.70;;;;;;;16.92;85.08;97287.84;5085976;28;20048;-68
2023/09/13 05:32:04;;;;;;;0.70;0.70;;;;;;;17.19;84.12;97285.31;5065701;28;20584;-68
2023/09/13 05:34:31;;;;;;;0.80;0.80;;;;;;;17.25;82.46;97244.47;5066317;28;20056;-68
2023/09/13 05:36:58;;;;;;;0.70;0.70;;;;;;;17.63;81.86;97285.50;5065714;28;20064;-68
2023/09/13 05:39:26;;;;;;;0.80;0.80;;;;;;;17.84;80.12;97288.97;5066134;28;20063;-67
2023/09/13 05:41:54;;;;;;;0.80;0.80;;;;;;;17.91;79.25;97282.47;5064309;28;20048;-68
2023/09/13 05:44:22;;;;;;;0.70;0.70;;;;;;;17.81;79.46;97289.75;5064648;28;20067;-68
2023/09/13 05:46:50;;;;;;;0.73;0.73;;;;;;;17.61;81.10;97285.09;5066097;28;20084;-68
2023/09/13 05:49:17;;;;;;;0.80;0.80;;;;;;;17.73;81.03;97288.25;5065788;28;20507;-67
2023/09/13 05:51:45;;;;;;;0.70;0.70;;;;;;;17.53;80.81;97233.16;5065526;28;20592;-68
2023/09/13 05:54:12;;;;;;;0.80;0.80;;;;;;;18.10;79.46;97290.31;5064678;28;20059;-68
2023/09/13 05:56:41;;;;;;;0.77;0.77;;;;;;;17.83;78.77;97230.50;5065729;28;20048;-68
2023/09/13 05:59:08;;;;;;;0.73;0.73;;;;;;;18.06;78.89;97239.91;5065691;28;20129;-68
2023/09/13 06:01:37;;;;;;;0.80;0.80;;;;;;;18.40;79.23;97286.91;5065370;28;20139;-68
2023/09/13 06:04:05;;;;;;;0.80;0.80;;;;;;;18.56;78.60;97281.53;5065513;28;20102;-69
2023/09/13 06:06:33;;;;;;;0.85;0.85;;;;;;;18.66;77.71;97261.78;5051409;28;20052;-69
2023/09/13 06:09:03;;;;;;;0.80;0.80;;;;;;;18.97;76.90;97299.91;5065382;28;20068;-68
2023/09/13 06:11:31;;;;;;;0.80;0.80;;;;;;;19.09;76.47;97290.13;5065237;28;20239;-66
2023/09/13 06:13:57;;;;;;;0.80;0.80;;;;;;;19.10;75.65;97281.28;5065364;28;20597;-68
2023/09/13 06:16:24;;;;;;;0.80;0.80;;;;;;;18.69;75.67;97187.97;5065820;28;20063;-68
2023/09/13 06:18:52;;;;;;;0.90;0.90;;;;;;;19.51;75.61;97283.97;5064237;28;20052;-68
2023/09/13 06:21:19;;;;;;;0.90;0.90;;;;;;;19.65;75.08;97291.44;5063891;28;20045;-67
2023/09/13 06:23:47;;;;;;;0.90;0.90;;;;;;;19.52;75.02;97247.00;5064709;28;20060;-68
2023/09/13 06:26:14;;;;;;;0.90;0.90;;;;;;;20.04;74.12;97288.81;5063903;28;20400;-68
2023/09/13 06:28:41;;;;;;;0.90;0.90;;;;;;;20.22;72.97;97283.69;5063884;28;20249;-68
2023/09/13 06:31:08;;;;;;;0.90;0.90;;;;;;;20.26;73.22;97285.25;5064692;28;20101;-68
2023/09/13 06:33:52;;;;;;;0.82;0.82;;;;;;;20.45;71.97;97283.69;5085119;28;20113;-68
2023/09/13 06:36:20;;;;;;;0.90;0.90;;;;;;;20.47;71.42;97250.31;5084684;28;20051;-67
2023/09/13 06:38:47;;;;;;;0.80;0.80;;;;;;;20.67;70.42;97266.00;5083776;28;20268;-67
2023/09/13 06:41:15;;;;;;;0.90;0.90;;;;;;;20.83;69.63;97239.94;5084721;28;20048;-68
2023/09/13 06:43:44;;;;;;;0.90;0.90;;;;;;;21.12;68.93;97283.22;5084261;28;20130;-67
2023/09/13 06:46:30;;;;;;;1.00;1.00;;;;;;;21.38;67.87;97282.28;5083272;28;20526;-68
2023/09/13 06:48:59;;;;;;;0.70;0.70;;;;;;;21.42;67.24;97265.31;5083471;28;20526;-67
2023/09/13 06:51:28;;;;;;;0.90;0.90;;;;;;;21.88;66.01;97282.78;5083432;28;20043;-68
2023/09/13 06:53:58;;;;;;;1.00;1.00;;;;;;;22.16;65.35;97284.91;5085374;28;20052;-68
2023/09/13 06:56:30;;;;;;;1.10;1.10;;;;;;;22.06;63.82;97232.38;5083189;28;20087;-67
2023/09/13 06:59:02;;;;;;;0.93;0.93;;;;;;;22.56;62.27;97276.28;5078561;28;20048;-67
2023/09/13 07:01:32;;;;;;;0.90;0.90;;;;;;;22.52;63.66;97290.50;5069029;28;20052;-67
2023/09/13 07:04:03;;;;;;;1.00;1.00;;;;;;;22.65;61.59;97251.81;5064573;28;20063;-67
2023/09/13 07:06:34;;;;;;;1.00;1.00;;;;;;;23.11;60.50;97279.56;5065035;28;20091;-67
2023/09/13 07:09:03;;;;;;;0.90;0.90;;;;;;;23.28;60.10;97291.66;5064290;28;20045;-67
2023/09/13 07:11:30;;;;;;;0.90;0.90;;;;;;;23.40;58.72;97273.91;5062668;28;20066;-67
2023/09/13 07:13:58;;;;;;;1.02;1.02;;;;;;;23.56;58.98;97276.66;5064161;28;20049;-68
2023/09/13 07:16:25;;;;;;;0.90;0.90;;;;;;;23.34;58.53;97276.50;5063904;28;20154;-68
2023/09/13 07:18:54;;;;;;;1.10;1.10;;;;;;;23.66;57.79;97281.22;5064247;28;20153;-68
2023/09/13 07:21:21;;;;;;;1.20;1.20;;;;;;;23.85;56.29;97277.38;5062515;28;20457;-68
2023/09/13 07:23:48;;;;;;;1.13;1.13;;;;;;;24.04;55.79;97279.22;5075741;28;20070;-65
2023/09/13 07:26:14;;;;;;;1.20;1.20;;;;;;;23.45;54.09;97208.31;5080371;28;20055;-62
2023/09/13 07:28:41;;;;;;;1.05;1.05;;;;;;;24.19;53.76;97274.66;5081888;28;20058;-67
2023/09/13 07:31:09;;;;;;;1.30;1.30;;;;;;;22.45;53.11;96983.69;5061411;28;20106;-66
2023/09/13 07:33:36;;;;;;;1.17;1.17;;;;;;;24.22;54.41;97278.63;5078332;28;20533;-61
2023/09/13 07:36:03;;;;;;;1.20;1.20;;;;;;;23.79;55.40;97285.63;5080617;28;20133;-61
2023/09/13 07:38:30;;;;;;;1.10;1.10;;;;;;;24.18;55.11;97284.41;5075768;28;20082;-62
2023/09/13 07:40:57;;;;;;;1.10;1.10;;;;;;;24.28;54.57;97260.59;5080112;28;20080;-64
2023/09/13 07:43:23;;;;;;;1.10;1.10;;;;;;;24.53;54.21;97280.38;5082962;28;20593;-60
2023/09/13 07:45:51;;;;;;;1.17;1.17;;;;;;;24.80;52.02;97280.66;5081191;28;20051;-66
2023/09/13 07:48:17;;;;;;;1.17;1.17;;;;;;;24.81;51.30;97270.94;5082548;28;20058;-67
2023/09/13 07:50:45;;;;;;;1.15;1.15;;;;;;;24.88;50.40;97259.34;5077316;28;20074;-68
2023/09/13 07:53:12;;;;;;;1.60;1.60;;;;;;;25.08;51.33;97262.66;5078909;28;20055;-66
2023/09/13 07:55:40;;;;;;;1.17;1.17;;;;;;;25.30;50.40;97257.78;5081544;28;20063;-65
2023/09/13 07:58:07;;;;;;;1.27;1.27;;;;;;;24.96;50.38;97215.31;5082624;28;20132;-68
2023/09/13 08:00:34;;;;;;;1.40;1.40;;;;;;;25.50;50.75;97253.84;5080438;28;20044;-71
2023/09/13 08:03:03;;;;;;;1.35;1.35;;;;;;;25.65;50.08;97249.19;5079965;28;20507;-62
2023/09/13 08:05:30;;;;;;;1.50;1.50;;;;;;;25.78;50.02;97247.06;5084239;28;20152;-64
2023/09/13 08:07:57;;;;;;;1.38;1.38;;;;;;;24.74;51.88;97242.03;5103798;28;20108;-63
2023/09/13 08:10:24;;;;;;;1.30;1.30;;;;;;;24.91;51.76;97247.06;5091793;28;20078;-61
2023/09/13 08:12:51;;;;;;;1.23;1.23;;;;;;;25.37;51.44;97244.63;5083365;28;20059;-65
2023/09/13 08:15:18;;;;;;;1.33;1.33;;;;;;;25.41;50.50;97239.59;5082483;28;20480;-70
2023/09/13 08:17:59;;;;;;;1.30;1.30;;;;;;;25.19;51.11;97188.53;5081939;28;20055;-62
2023/09/13 08:20:26;;;;;;;1.35;1.35;;;;;;;25.21;51.63;97237.84;5082830;28;20052;-60
2023/09/13 08:23:10;;;;;;;1.17;1.17;;;;;;;24.46;53.16;97238.16;3352591;28;10004196;-61
2023/09/13 08:25:37;;;;;;;1.10;1.10;;;;;;;24.46;53.08;97192.81;3979997;28;10000763;-65
2023/09/13 08:28:05;;;;;;;1.00;1.00;;;;;;;25.24;51.92;97236.16;5083413;28;20086;-61
2023/09/13 08:30:32;;;;;;;1.33;1.33;;;;;;;23.83;50.76;96979.94;5095222;28;20474;-63
2023/09/13 08:32:59;;;;;;;1.20;1.20;;;;;;;25.69;50.55;97215.78;5084816;28;20097;-62
2023/09/13 08:35:26;;;;;;;1.20;1.20;;;;;;;25.40;49.71;97158.59;5096185;28;20148;-63
2023/09/13 08:37:52;;;;;;;1.40;1.40;;;;;;;25.69;50.10;97170.38;5103148;28;20056;-61
2023/09/13 08:40:19;;;;;;;1.35;1.35;;;;;;;26.16;49.43;97222.00;5099273;28;20158;-61
2023/09/13 08:42:46;;;;;;;1.60;1.60;;;;;;;26.35;49.72;97213.03;5086050;28;20588;-61
2023/09/13 08:45:13;;;;;;;1.40;1.40;;;;;;;26.26;49.23;97175.28;5082436;28;20419;-63
2023/09/13 08:47:44;;;;;;;1.40;1.40;;;;;;;26.45;49.09;97193.94;5098665;28;20135;-64
2023/09/13 08:50:27;;;;;;;1.48;1.48;;;;;;;26.30;49.08;97192.97;5102886;28;20138;-63
2023/09/13 08:52:58;;;;;;;1.35;1.35;;;;;;;26.15;48.55;97126.66;5085574;28;20052;-62
2023/09/13 08:55:25;;;;;;;1.48;1.48;;;;;;;26.30;46.84;97139.00;5082502;28;20044;-63
2023/09/13 08:57:54;;;;;;;1.52;1.52;;;;;;;26.94;47.72;97208.84;5091220;28;20059;-68
2023/09/13 09:00:25;;;;;;;1.50;1.50;;;;;;;26.36;47.61;97111.53;5082701;28;20051;-64
2023/09/13 09:02:55;;;;;;;1.50;1.50;;;;;;;26.81;46.29;97179.78;5083091;28;20048;-64
2023/09/13 09:05:26;;;;;;;1.50;1.50;;;;;;;26.24;48.25;97200.56;5093032;28;20063;-63
2023/09/13 09:07:56;;;;;;;1.40;1.40;;;;;;;26.31;47.85;97126.38;5079406;28;20156;-74
2023/09/13 09:10:23;;;;;;;1.50;1.50;;;;;;;26.70;47.66;97168.09;5086723;28;20052;-62
2023/09/13 09:12:52;;;;;;;1.50;1.50;;;;;;;26.98;46.69;97189.56;5087584;27;20139;-65
2023/09/13 09:15:19;;;;;;;1.60;1.60;;;;;;;27.07;47.08;97189.56;5105863;28;20047;-63
2023/09/13 09:17:49;;;;;;;1.38;1.38;;;;;;;26.95;46.90;97203.94;5106083;28;20510;-63
2023/09/13 09:20:16;;;;;;;1.48;1.48;;;;;;;27.20;45.98;97201.56;5095763;28;20044;-64
2023/09/13 09:22:42;;;;;;;1.40;1.40;;;;;;;27.11;45.82;97133.28;5086209;28;20060;-64
2023/09/13 09:25:11;;;;;;;1.80;1.80;;;;;;;26.84;45.34;97096.41;5091589;27;20075;-63
2023/09/13 09:27:41;;;;;;;1.60;1.60;;;;;;;27.73;45.44;97191.31;5085741;27;20055;-61
2023/09/13 09:30:14;;;;;;;1.50;1.50;;;;;;;26.87;45.64;97044.25;5091570;28;20050;-62
2023/09/13 09:32:43;;;;;;;1.58;1.58;;;;;;;27.84;45.24;97162.31;5087877;28;20048;-62
2023/09/13 09:35:10;;;;;;;1.50;1.50;;;;;;;28.12;44.37;97190.19;5094902;28;20051;-67
2023/09/13 09:37:37;;;;;;;1.85;1.85;;;;;;;28.26;44.29;97176.50;5099972;28;20549;-62
2023/09/13 09:40:14;;;;;;;1.55;1.55;;;;;;;28.02;44.59;97165.09;5093012;27;20071;-61
2023/09/13 09:42:41;;;;;;;1.40;1.40;;;;;;;28.08;44.20;97172.50;5105972;28;20051;-66
2023/09/13 09:45:08;;;;;;;1.50;1.50;;;;;;;28.19;44.35;97171.97;5094778;28;20179;-64
2023/09/13 09:47:39;;;;;;;1.80;1.80;;;;;;;28.52;43.38;97166.22;5069455;28;20148;-62
2023/09/13 09:50:10;;;;;;;1.70;1.70;;;;;;;28.08;43.54;97080.53;5095039;28;20043;-63
2023/09/13 09:52:38;;;;;;;1.52;1.52;;;;;;;28.61;43.45;97175.47;5106315;28;20059;-63
2023/09/13 09:55:05;;;;;;;1.60;1.60;;;;;;;28.43;42.57;97083.59;5105719;28;20438;-64
2023/09/13 09:57:33;;;;;;;1.65;1.65;;;;;;;28.85;42.44;97166.91;5087567;28;20059;-63
2023/09/13 10:00:00;;;;;;;1.65;1.65;;;;;;;28.88;42.41;97155.28;5097879;28;20075;-63
2023/09/13 10:02:27;;;;;;;1.73;1.73;;;;;;;29.14;42.38;97155.56;5067489;28;20823;-63
2023/09/13 10:04:54;;;;;;;1.70;1.70;;;;;;;28.82;41.71;97096.56;5085691;28;20482;-63
2023/09/13 10:07:21;;;;;;;1.60;1.60;;;;;;;29.21;42.06;97129.50;5067547;28;20047;-63
2023/09/13 10:09:48;;;;;;;1.95;1.95;;;;;;;29.34;41.63;97135.66;5067229;28;20136;-62
2023/09/13 10:12:15;;;;;;;1.98;1.98;;;;;;;29.56;41.49;97181.72;5085306;28;20126;-62
2023/09/13 10:14:44;;;;;;;1.80;1.80;;;;;;;29.18;42.44;97142.66;5085016;28;20439;-61
2023/09/13 10:17:11;;;;;;;1.95;1.95;;;;;;;29.55;41.74;97123.06;5085037;28;20052;-62
2023/09/13 10:19:41;;;;;;;1.65;1.65;;;;;;;29.56;41.12;97091.16;5085239;28;20083;-64
2023/09/13 10:22:13;;;;;;;1.70;1.70;;;;;;;30.03;41.12;97135.78;5084083;28;20082;-62
2023/09/13 10:24:50;;;;;;;1.85;1.85;;;;;;;30.04;40.38;97136.56;5084665;28;20055;-63
2023/09/13 10:27:17;;;;;;;2.00;2.00;;;;;;;30.28;40.80;97123.69;5085198;28;20523;-63
2023/09/13 10:30:12;;;;;;;1.92;1.92;;;;;;;30.12;40.30;97098.50;5085181;28;20047;-61
2023/09/13 10:32:48;;;;;;;1.95;1.95;;;;;;;30.08;40.19;97120.78;5084499;28;20075;-64
2023/09/13 10:35:17;;;;;;;1.90;1.90;;;;;;;30.16;40.26;97121.16;5094424;28;20054;-62
2023/09/13 10:37:44;;;;;;;1.90;1.90;;;;;;;30.14;40.12;97120.88;5066400;28;20048;-61
2023/09/13 10:40:27;;;;;;;2.13;2.13;;;;;;;30.27;39.85;97118.50;5084624;28;20044;-62
2023/09/13 10:42:54;;;;;;;2.08;2.08;;;;;;;30.11;39.44;97091.22;5097949;27;20055;-61
2023/09/13 10:45:22;;;;;;;1.90;1.90;;;;;;;29.79;39.86;97003.78;5067203;28;20074;-69
2023/09/13 10:47:50;;;;;;;1.60;1.60;;;;;;;30.28;39.85;97103.69;5089953;28;20066;-61
2023/09/13 10:50:18;;;;;;;1.92;1.92;;;;;;;30.34;39.86;97098.81;5088787;28;20044;-62
2023/09/13 10:52:48;;;;;;;1.83;1.83;;;;;;;30.30;39.42;97077.47;5105430;28;20079;-65
2023/09/13 10:55:15;;;;;;;1.95;1.95;;;;;;;30.07;39.31;97064.13;5095256;28;20040;-62
2023/09/13 10:57:43;;;;;;;2.17;2.17;;;;;;;30.43;39.22;97097.91;5085426;28;20040;-63
2023/09/13 11:00:11;;;;;;;2.10;2.10;;;;;;;30.38;39.67;97093.66;5074503;28;20114;-60
2023/09/13 11:02:40;;;;;;;1.80;1.80;;;;;;;30.14;39.50;97035.94;5090240;28;20405;-68
2023/09/13 11:05:10;;;;;;;2.03;2.03;;;;;;;30.64;38.38;97091.66;5100137;28;20056;-60
2023/09/13 11:07:41;;;;;;;1.75;1.75;;;;;;;29.98;39.15;97089.97;5102899;28;20051;-66
2023/09/13 11:10:19;;;;;;;1.90;1.90;;;;;;;30.41;38.68;97098.41;5104194;28;20104;-62
2023/09/13 11:12:48;;;;;;;1.92;1.92;;;;;;;30.63;38.34;97087.22;5097775;28;20071;-62
2023/09/13 11:15:19;;;;;;;1.90;1.90;;;;;;;30.13;39.15;97025.00;5100979;28;20047;-61
2023/09/13 11:17:46;;;;;;;1.75;1.75;;;;;;;30.50;38.69;97088.88;5096583;28;20522;-61
2023/09/13 11:20:36;;;;;;;1.95;1.95;;;;;;;31.00;38.01;97078.03;5096683;28;20047;-61
2023/09/13 11:23:10;;;;;;;2.05;2.05;;;;;;;31.09;38.07;97083.56;5090548;28;20051;-59
2023/09/13 11:26:02;;;;;;;2.10;2.10;;;;;;;30.82;37.32;97068.50;5096263;28;20135;-61
2023/09/13 11:28:36;;;;;;;2.00;2.00;;;;;;;31.02;37.83;97072.56;5065166;28;20507;-62
2023/09/13 11:31:05;;;;;;;1.92;1.92;;;;;;;30.74;37.53;96997.88;5095272;28;20053;-64
2023/09/13 11:33:39;;;;;;;1.92;1.92;;;;;;;31.26;37.06;97070.19;5100786;28;20138;-61
2023/09/13 11:36:05;;;;;;;;;;;;;;;31.15;38.09;97070.09;5098110;28;20052;-63
2023/09/13 11:38:35;;;;;;;1.80;1.80;;;;;;;31.15;37.05;97058.63;5098714;28;19928;-62
2023/09/13 11:41:02;;;;;;;1.90;1.90;;;;;;;31.04;37.24;97053.59;5088618;28;20055;-62